Time;durP1;ratioP1;P1;durP2;ratioP2;P2;SDS_P1;SDS_P2;PMS_P1;PMS_P2;Temp;Humidity;BMP_temperature;BMP_pressure;BME280_temperature;BME280_humidity;BME280_pressure;Samples;Min_cycle;Max_cycle;Signal;HPM_P1;HPM_P2
2023/05/22 00:02:03;;;;;;;28.73;21.30;;;;;;;15.54;100.00;101443.59;5034890;28;20022;-70
2023/05/22 00:04:30;;;;;;;32.22;20.63;;;;;;;15.50;100.00;101451.63;5034246;28;20017;-70
2023/05/22 00:06:55;;;;;;;30.33;21.15;;;;;;;15.48;100.00;101441.16;5034425;28;20385;-71
2023/05/22 00:09:23;;;;;;;28.90;20.35;;;;;;;15.44;100.00;101440.41;5034923;28;20034;-71
2023/05/22 00:11:49;;;;;;;29.42;21.35;;;;;;;15.23;100.00;101420.13;5034079;28;20076;-71
2023/05/22 00:14:15;;;;;;;35.13;22.70;;;;;;;15.20;100.00;101409.72;5034578;28;20021;-70
2023/05/22 00:16:40;;;;;;;35.58;21.85;;;;;;;15.32;100.00;101432.94;5034680;28;20381;-71
2023/05/22 00:19:11;;;;;;;32.88;22.00;;;;;;;15.36;100.00;101431.06;5034094;28;20108;-71
2023/05/22 00:21:37;;;;;;;26.65;20.33;;;;;;;15.34;100.00;101435.53;5034794;28;20025;-71
2023/05/22 00:24:02;;;;;;;32.72;21.67;;;;;;;15.29;100.00;101426.94;5034166;28;20365;-71
2023/05/22 00:26:28;;;;;;;29.45;20.88;;;;;;;15.28;100.00;101433.13;5034523;28;20104;-71
2023/05/22 00:28:53;;;;;;;30.08;22.25;;;;;;;15.20;100.00;101430.72;5040305;28;20102;-70
2023/05/22 00:31:18;;;;;;;30.80;22.15;;;;;;;15.18;100.00;101427.31;5039825;28;20472;-70
2023/05/22 00:33:44;;;;;;;34.15;21.88;;;;;;;15.15;100.00;101428.25;5036118;28;20029;-71
2023/05/22 00:36:09;;;;;;;29.75;22.55;;;;;;;15.12;100.00;101420.47;5032777;28;20477;-70
2023/05/22 00:38:36;;;;;;;31.02;23.42;;;;;;;15.11;100.00;101431.91;5033444;28;20114;-71
2023/05/22 00:41:03;;;;;;;30.67;22.85;;;;;;;15.08;100.00;101439.88;5033939;28;20473;-70
2023/05/22 00:43:28;;;;;;;33.30;24.27;;;;;;;15.04;100.00;101432.13;5033923;28;20487;-70
2023/05/22 00:45:54;;;;;;;29.98;21.98;;;;;;;15.05;100.00;101428.63;5032828;28;20033;-71
2023/05/22 00:48:20;;;;;;;33.95;23.75;;;;;;;14.95;100.00;101418.41;5034242;28;20088;-70
2023/05/22 00:50:46;;;;;;;30.58;23.60;;;;;;;14.95;100.00;101426.28;5035530;28;20100;-70
2023/05/22 00:53:13;;;;;;;32.05;22.80;;;;;;;14.90;100.00;101422.94;5041958;28;20116;-70
2023/05/22 00:55:39;;;;;;;33.90;22.90;;;;;;;14.88;100.00;101426.56;5044584;28;20036;-70
2023/05/22 00:58:06;;;;;;;30.38;23.48;;;;;;;14.88;100.00;101421.31;5033536;28;20036;-71
2023/05/22 01:00:35;;;;;;;32.55;23.42;;;;;;;14.84;100.00;101419.66;5030496;28;20021;-70
2023/05/22 01:03:02;;;;;;;28.67;21.63;;;;;;;14.84;100.00;101427.53;5033527;28;20053;-70
2023/05/22 01:05:27;;;;;;;33.45;22.73;;;;;;;14.86;100.00;101433.59;5033590;28;20018;-70
2023/05/22 01:07:53;;;;;;;31.00;22.25;;;;;;;14.85;100.00;101418.78;5032783;28;20095;-70
2023/05/22 01:10:18;;;;;;;34.55;24.45;;;;;;;14.79;100.00;101432.09;5033833;28;20021;-70
2023/05/22 01:12:59;;;;;;;29.27;22.73;;;;;;;14.79;100.00;101424.22;5033560;28;20030;-70
2023/05/22 01:15:34;;;;;;;32.08;21.88;;;;;;;14.77;100.00;101420.75;5033057;28;20030;-70
2023/05/22 01:18:34;;;;;;;33.22;23.08;;;;;;;14.78;100.00;101425.97;5025988;28;20473;-70
2023/05/22 01:21:09;;;;;;;31.80;22.90;;;;;;;14.71;100.00;101422.69;5032510;28;20017;-70
2023/05/22 01:23:59;;;;;;;32.55;23.58;;;;;;;14.63;100.00;101422.06;5033394;28;20080;-70
2023/05/22 01:27:04;;;;;;;30.42;23.27;;;;;;;14.58;100.00;101425.72;5033417;28;20040;-70
2023/05/22 01:29:56;;;;;;;31.02;23.35;;;;;;;14.57;100.00;101427.50;5032652;28;20022;-70
2023/05/22 01:32:24;;;;;;;32.50;23.02;;;;;;;14.48;100.00;101430.34;5033646;28;20045;-70
2023/05/22 01:34:57;;;;;;;32.47;24.00;;;;;;;14.46;100.00;101421.69;5031893;28;20025;-70
2023/05/22 01:37:23;;;;;;;30.58;23.20;;;;;;;14.40;100.00;101422.72;5033559;28;20069;-71
2023/05/22 01:39:50;;;;;;;32.33;23.20;;;;;;;14.38;100.00;101418.44;5032543;28;20026;-70
2023/05/22 01:42:17;;;;;;;32.17;23.95;;;;;;;14.29;100.00;101415.19;5032308;28;20029;-71
2023/05/22 01:44:42;;;;;;;30.33;24.00;;;;;;;14.27;100.00;101426.63;5032471;28;20392;-70
2023/05/22 01:47:07;;;;;;;36.25;23.40;;;;;;;14.24;100.00;101418.84;5033300;28;20108;-70
2023/05/22 01:49:35;;;;;;;32.10;23.75;;;;;;;14.22;100.00;101413.66;5032408;28;20075;-70
2023/05/22 01:52:14;;;;;;;32.83;23.70;;;;;;;14.15;100.00;101409.47;5032907;28;20028;-70
2023/05/22 01:54:51;;;;;;;33.88;24.02;;;;;;;14.15;100.00;101409.47;5032229;28;20033;-71
2023/05/22 01:57:45;;;;;;;31.95;24.30;;;;;;;14.18;100.00;101416.41;5027607;28;20095;-70
2023/05/22 02:00:14;;;;;;;;;;;;;;;14.21;100.00;101411.91;5033415;28;20037;-70
2023/05/22 02:02:43;;;;;;;31.88;22.98;;;;;;;14.15;100.00;101412.09;5032018;28;20291;-71
2023/05/22 02:05:11;;;;;;;32.63;23.33;;;;;;;14.07;100.00;101403.63;5032913;28;20033;-70
2023/05/22 02:07:38;;;;;;;35.25;24.02;;;;;;;14.10;100.00;101408.78;5032472;28;20113;-70
2023/05/22 02:10:07;;;;;;;31.58;23.55;;;;;;;14.07;100.00;101405.38;5031905;28;20386;-70
2023/05/22 02:12:33;;;;;;;34.65;23.55;;;;;;;14.01;100.00;101411.66;5032514;28;20060;-70
2023/05/22 02:14:59;;;;;;;35.25;23.60;;;;;;;13.95;100.00;101404.81;5032561;28;20036;-70
2023/05/22 02:17:24;;;;;;;32.03;24.15;;;;;;;13.94;100.00;101407.50;5031978;28;20021;-70
2023/05/22 02:19:50;;;;;;;39.03;24.35;;;;;;;13.95;100.00;101414.44;5032225;28;20059;-71
2023/05/22 02:22:15;;;;;;;34.13;24.98;;;;;;;13.91;100.00;101410.19;5032622;28;20022;-70
2023/05/22 02:24:45;;;;;;;35.28;25.00;;;;;;;13.90;100.00;101411.09;5031780;28;20377;-71
2023/05/22 02:27:10;;;;;;;35.50;25.48;;;;;;;13.84;100.00;101406.03;5032659;28;20018;-70
2023/05/22 02:29:36;;;;;;;34.63;25.50;;;;;;;13.77;100.00;101390.47;5032502;28;20355;-70
2023/05/22 02:32:01;;;;;;;30.52;23.08;;;;;;;13.86;100.00;101401.59;5031548;28;20469;-71
2023/05/22 02:34:27;;;;;;;33.53;24.30;;;;;;;13.85;100.00;101397.25;5026521;28;20108;-70
2023/05/22 02:36:52;;;;;;;35.67;25.08;;;;;;;13.81;100.00;101392.09;5032094;28;20030;-70
2023/05/22 02:39:18;;;;;;;37.47;25.55;;;;;;;13.82;100.00;101387.72;5031353;28;20068;-71
2023/05/22 02:41:43;;;;;;;33.13;24.38;;;;;;;13.84;100.00;101400.78;5032288;28;20064;-71
2023/05/22 02:44:08;;;;;;;37.67;25.60;;;;;;;13.82;100.00;101395.56;5032175;28;20469;-71
2023/05/22 02:46:34;;;;;;;36.75;25.33;;;;;;;13.80;100.00;101397.41;5031663;28;20029;-71
2023/05/22 02:48:59;;;;;;;32.03;24.33;;;;;;;13.81;100.00;101392.09;5032124;28;20502;-70
2023/05/22 02:51:24;;;;;;;35.10;24.48;;;;;;;13.76;100.00;101380.03;5032025;28;20034;-70
2023/05/22 02:53:50;;;;;;;38.22;26.42;;;;;;;13.83;100.00;101378.94;5031118;28;20119;-71
2023/05/22 02:56:17;;;;;;;34.05;23.65;;;;;;;13.89;100.00;101388.41;5032165;28;20033;-70
2023/05/22 02:58:43;;;;;;;39.08;24.83;;;;;;;13.90;100.00;101385.75;5022136;28;20088;-71
2023/05/22 03:01:09;;;;;;;39.35;24.73;;;;;;;13.92;100.00;101385.69;5031635;28;20029;-71
2023/05/22 03:03:35;;;;;;;35.20;24.23;;;;;;;13.92;100.00;101396.19;5032069;28;20108;-71
2023/05/22 03:06:00;;;;;;;33.42;24.60;;;;;;;13.79;100.00;101375.56;5034169;28;20112;-71
2023/05/22 03:08:27;;;;;;;36.88;25.92;;;;;;;13.82;100.00;101377.22;5035960;28;20021;-70
2023/05/22 03:10:53;;;;;;;36.92;27.33;;;;;;;13.85;100.00;101381.53;5022289;28;20032;-70
2023/05/22 03:13:18;;;;;;;33.35;24.60;;;;;;;13.89;100.00;101393.66;5035454;28;20022;-71
2023/05/22 03:15:44;;;;;;;35.10;25.48;;;;;;;13.79;100.00;101390.41;5035722;28;20104;-71
2023/05/22 03:18:10;;;;;;;35.40;25.63;;;;;;;13.73;100.00;101381.00;5035727;28;20021;-71
2023/05/22 03:20:35;;;;;;;36.22;26.08;;;;;;;13.67;100.00;101388.13;5034807;28;20083;-71
2023/05/22 03:23:00;;;;;;;36.17;25.38;;;;;;;13.51;100.00;101374.63;5035324;28;20030;-71
2023/05/22 03:25:26;;;;;;;35.35;25.35;;;;;;;13.57;100.00;101382.31;5035974;28;20070;-71
2023/05/22 03:27:51;;;;;;;33.17;24.33;;;;;;;13.46;100.00;101379.09;5034689;28;20084;-70
2023/05/22 03:30:16;;;;;;;35.63;25.83;;;;;;;13.38;100.00;101374.09;5035847;28;20473;-70
2023/05/22 03:32:42;;;;;;;36.30;25.48;;;;;;;13.40;100.00;101379.28;5035152;28;20076;-71
2023/05/22 03:35:07;;;;;;;36.00;25.55;;;;;;;13.34;100.00;101381.16;5034896;28;20014;-70
2023/05/22 03:37:33;;;;;;;33.30;24.23;;;;;;;13.29;100.00;101375.19;5035298;28;20055;-70
2023/05/22 03:39:58;;;;;;;36.42;25.20;;;;;;;13.32;100.00;101384.72;5035368;28;20033;-71
2023/05/22 03:42:24;;;;;;;35.17;25.58;;;;;;;13.27;100.00;101376.09;5034636;28;20513;-71
2023/05/22 03:44:49;;;;;;;36.78;26.77;;;;;;;13.29;100.00;101379.56;5034743;28;20045;-71
2023/05/22 03:47:15;;;;;;;37.17;26.02;;;;;;;13.22;100.00;101370.97;5035269;28;20049;-70
2023/05/22 03:49:40;;;;;;;39.35;25.88;;;;;;;13.18;100.00;101374.59;5034165;28;20025;-71
2023/05/22 03:52:09;;;;;;;33.95;25.67;;;;;;;13.24;100.00;101377.06;5035530;28;20022;-71
2023/05/22 03:54:34;;;;;;;37.67;27.30;;;;;;;13.31;100.00;101380.41;5034995;28;20025;-71
2023/05/22 03:57:00;;;;;;;39.47;27.55;;;;;;;13.30;100.00;101376.03;5034025;28;20056;-70
2023/05/22 03:59:25;;;;;;;38.67;27.30;;;;;;;13.29;100.00;101379.56;5035783;28;20037;-71
2023/05/22 04:01:50;;;;;;;36.30;27.08;;;;;;;13.31;100.00;101372.53;5034536;28;20100;-71
2023/05/22 04:04:16;;;;;;;40.85;27.30;;;;;;;13.22;100.00;101365.75;5034207;28;20021;-70
2023/05/22 04:06:42;;;;;;;37.03;27.38;;;;;;;13.18;100.00;101374.59;5028582;28;20028;-71
2023/05/22 04:09:10;;;;;;;39.92;26.48;;;;;;;13.17;100.00;101371.97;5034109;28;20030;-70
2023/05/22 04:11:36;;;;;;;36.80;27.13;;;;;;;13.18;100.00;101368.47;5034845;28;20025;-71
2023/05/22 04:14:04;;;;;;;36.95;26.23;;;;;;;13.19;100.00;101370.19;5034641;28;20400;-70
2023/05/22 04:16:30;;;;;;;38.45;28.10;;;;;;;13.17;100.00;101379.84;5033266;28;20531;-71
2023/05/22 04:18:55;;;;;;;35.60;26.40;;;;;;;13.11;100.00;101366.03;5034347;28;20100;-71
2023/05/22 04:21:22;;;;;;;42.55;27.73;;;;;;;13.12;100.00;101372.13;5034908;28;20472;-70
2023/05/22 04:23:48;;;;;;;45.00;28.58;;;;;;;13.10;100.00;101376.50;5033873;28;20025;-71
2023/05/22 04:26:14;;;;;;;41.60;27.52;;;;;;;13.05;100.00;101373.19;5034892;28;20021;-70
2023/05/22 04:28:40;;;;;;;42.15;27.55;;;;;;;13.11;100.00;101379.13;5034257;28;20056;-71
2023/05/22 04:31:05;;;;;;;36.80;27.55;;;;;;;13.06;100.00;101373.13;5033641;28;20414;-70
2023/05/22 04:33:33;;;;;;;39.65;28.20;;;;;;;13.17;100.00;101391.16;5034489;28;20030;-70
2023/05/22 04:35:59;;;;;;;40.58;29.55;;;;;;;13.18;100.00;101390.28;5033893;28;20040;-71
2023/05/22 04:38:25;;;;;;;42.08;29.27;;;;;;;13.34;100.00;101396.88;5033901;28;20096;-70
2023/05/22 04:40:51;;;;;;;42.97;29.83;;;;;;;13.43;100.00;101403.63;5034142;28;20109;-71
2023/05/22 04:43:17;;;;;;;40.90;29.23;;;;;;;13.49;100.00;101394.75;5034197;28;20467;-71
2023/05/22 04:45:42;;;;;;;41.50;29.60;;;;;;;13.61;100.00;101399.66;5032893;28;20153;-71
2023/05/22 04:48:08;;;;;;;39.45;29.08;;;;;;;13.65;100.00;101406.53;5034016;28;20057;-70
2023/05/22 04:50:34;;;;;;;44.72;30.20;;;;;;;13.64;100.00;101415.31;5034373;28;20045;-71
2023/05/22 04:53:02;;;;;;;44.67;28.77;;;;;;;13.58;100.00;101410.22;5033143;28;20083;-71
2023/05/22 04:55:28;;;;;;;42.97;29.30;;;;;;;13.69;100.00;101418.63;5034070;28;20026;-71
2023/05/22 04:57:55;;;;;;;41.90;29.10;;;;;;;13.77;100.00;101408.81;5033894;28;20049;-71
2023/05/22 05:00:25;;;;;;;41.70;28.23;;;;;;;13.89;100.00;101412.00;5033242;28;20056;-70
2023/05/22 05:02:50;;;;;;;42.28;28.73;;;;;;;13.87;100.00;101405.94;5033571;28;20453;-71
2023/05/22 05:05:15;;;;;;;39.55;28.48;;;;;;;13.97;100.00;101415.28;5033641;28;20096;-70
2023/05/22 05:07:42;;;;;;;41.65;28.30;;;;;;;13.89;100.00;101388.41;5032748;28;20477;-71
2023/05/22 05:10:08;;;;;;;40.03;28.85;;;;;;;14.09;100.00;101416.66;5034051;28;20025;-71
2023/05/22 05:12:33;;;;;;;40.53;27.80;;;;;;;14.12;100.00;101430.53;5034802;28;20036;-71
2023/05/22 05:14:59;;;;;;;43.88;29.15;;;;;;;14.14;100.00;101427.88;5033740;28;20495;-70
2023/05/22 05:17:24;;;;;;;40.05;29.30;;;;;;;14.17;100.00;101426.03;5038415;28;20485;-70
2023/05/22 05:19:49;;;;;;;39.78;29.20;;;;;;;14.08;100.00;101423.66;5037042;28;20468;-71
2023/05/22 05:22:15;;;;;;;40.13;28.75;;;;;;;14.08;100.00;101425.44;5044058;28;20029;-70
2023/05/22 05:24:40;;;;;;;44.60;29.23;;;;;;;14.18;100.00;101432.13;5040909;28;20477;-71
2023/05/22 05:27:05;;;;;;;43.72;29.52;;;;;;;14.17;100.00;101433.91;5030908;28;20105;-70
2023/05/22 05:29:31;;;;;;;47.58;30.33;;;;;;;14.14;100.00;101430.50;5032145;28;20028;-71
2023/05/22 05:31:56;;;;;;;46.83;31.10;;;;;;;14.18;100.00;101430.38;5032352;28;20392;-70
2023/05/22 05:34:21;;;;;;;43.53;29.42;;;;;;;14.18;100.00;101425.13;5032219;28;20033;-70
2023/05/22 05:36:47;;;;;;;48.17;30.85;;;;;;;14.32;100.00;101419.47;5032734;28;20048;-71
2023/05/22 05:39:12;;;;;;;48.08;30.58;;;;;;;14.43;100.00;101421.78;5033016;28;20047;-70
2023/05/22 05:41:37;;;;;;;45.22;29.83;;;;;;;14.45;100.00;101433.06;5032440;28;20022;-71
2023/05/22 05:44:03;;;;;;;45.60;29.60;;;;;;;14.48;100.00;101423.34;5033060;28;20021;-72
2023/05/22 05:46:28;;;;;;;43.58;30.65;;;;;;;14.61;100.00;101431.72;5033001;28;20026;-71
2023/05/22 05:48:53;;;;;;;49.72;31.23;;;;;;;14.69;100.00;101428.88;5031877;28;20071;-70
2023/05/22 05:51:20;;;;;;;42.22;29.83;;;;;;;14.68;100.00;101412.28;5033024;28;20530;-71
2023/05/22 05:53:45;;;;;;;46.38;30.88;;;;;;;14.79;100.00;101418.97;5032821;28;20029;-71
2023/05/22 05:56:10;;;;;;;45.90;30.40;;;;;;;14.91;100.00;101423.78;5032124;28;20030;-71
2023/05/22 05:58:36;;;;;;;50.42;30.92;;;;;;;14.98;100.00;101420.09;5033152;28;20059;-71
2023/05/22 06:01:01;;;;;;;46.72;31.15;;;;;;;15.09;100.00;101422.34;5032608;28;20477;-71
2023/05/22 06:03:27;;;;;;;40.95;28.85;;;;;;;15.22;100.00;101435.03;5031852;28;20029;-70
2023/05/22 06:05:52;;;;;;;47.67;29.90;;;;;;;15.22;100.00;101416.63;5032770;28;20113;-71
2023/05/22 06:08:18;;;;;;;50.88;31.98;;;;;;;15.34;100.00;101427.66;5032608;28;20017;-71
2023/05/22 06:10:45;;;;;;;48.20;30.30;;;;;;;15.48;100.00;101435.06;5031657;28;20030;-71
2023/05/22 06:13:11;;;;;;;46.92;31.50;;;;;;;15.51;100.00;101425.31;5032783;28;20025;-71
2023/05/22 06:15:36;;;;;;;47.75;30.63;;;;;;;15.64;100.00;101421.34;5032644;28;20143;-71
2023/05/22 06:18:01;;;;;;;50.53;31.38;;;;;;;15.82;100.00;101437.38;5031762;28;20028;-71
2023/05/22 06:20:27;;;;;;;46.53;31.20;;;;;;;15.93;100.00;101443.13;5032564;28;20458;-71
2023/05/22 06:22:52;;;;;;;46.47;32.13;;;;;;;15.93;100.00;101435.25;5031706;28;20025;-71
2023/05/22 06:25:18;;;;;;;53.00;33.20;;;;;;;16.01;100.00;101456.00;5032616;28;20026;-71
2023/05/22 06:27:43;;;;;;;48.08;33.90;;;;;;;15.97;100.00;101439.47;5032137;28;20025;-71
2023/05/22 06:30:08;;;;;;;54.10;34.90;;;;;;;15.91;100.00;101448.44;5031627;28;20022;-71
2023/05/22 06:32:34;;;;;;;54.75;33.97;;;;;;;15.88;100.00;101458.19;5031351;28;20108;-71
2023/05/22 06:34:59;;;;;;;56.95;35.95;;;;;;;15.94;100.00;101460.63;5029880;28;20105;-71
2023/05/22 06:37:25;;;;;;;56.05;34.83;;;;;;;16.04;100.00;101454.09;5038937;28;20492;-71
2023/05/22 06:39:50;;;;;;;51.72;34.00;;;;;;;16.14;100.00;101463.38;5034642;28;20029;-71
2023/05/22 06:42:15;;;;;;;54.00;35.40;;;;;;;16.18;100.00;101458.00;5037133;28;20029;-71
2023/05/22 06:44:40;;;;;;;61.17;38.33;;;;;;;16.22;100.00;101457.84;5034877;28;20045;-71
2023/05/22 06:47:07;;;;;;;65.72;37.92;;;;;;;16.26;100.00;101459.44;5038722;28;20029;-70
2023/05/22 06:49:32;;;;;;;63.28;38.38;;;;;;;16.37;100.00;101459.03;5037143;28;20439;-71
2023/05/22 06:51:57;;;;;;;61.78;38.03;;;;;;;16.51;100.00;101451.50;5037951;28;20116;-71
2023/05/22 06:54:22;;;;;;;61.13;37.90;;;;;;;16.48;100.00;101451.59;5032286;28;20041;-71
2023/05/22 06:56:48;;;;;;;65.38;38.55;;;;;;;16.61;100.00;101460.75;5036960;28;20038;-71
2023/05/22 06:59:13;;;;;;;67.60;39.22;;;;;;;16.69;100.00;101467.47;5038037;28;20036;-71
2023/05/22 07:01:39;;;;;;;67.47;39.65;;;;;;;16.57;100.00;101469.66;5037987;28;20469;-71
2023/05/22 07:04:04;;;;;;;69.38;40.88;;;;;;;16.53;100.00;101477.72;5037260;28;20068;-71
2023/05/22 07:06:37;;;;;;;65.45;42.42;;;;;;;16.43;100.00;101461.44;5037140;28;20029;-71
2023/05/22 07:09:06;;;;;;;68.85;41.78;;;;;;;16.36;100.00;101473.97;5036904;28;20030;-71
2023/05/22 07:11:32;;;;;;;69.80;41.03;;;;;;;16.34;100.00;101491.56;5038519;28;20397;-71
2023/05/22 07:13:57;;;;;;;68.18;40.90;;;;;;;16.31;100.00;101490.84;5037501;28;20017;-71
2023/05/22 07:16:24;;;;;;;73.70;42.47;;;;;;;16.24;100.00;101499.88;5038449;28;20060;-71
2023/05/22 07:18:49;;;;;;;72.57;42.00;;;;;;;16.35;100.00;101495.09;5038350;28;20109;-72
2023/05/22 07:21:15;;;;;;;77.03;43.60;;;;;;;16.38;100.00;101494.94;5041397;28;20052;-72
2023/05/22 07:23:40;;;;;;;80.65;46.70;;;;;;;16.39;100.00;101492.28;5045046;28;20424;-72
2023/05/22 07:26:06;;;;;;;83.07;46.47;;;;;;;16.38;100.00;101487.94;5037683;28;20036;-71
2023/05/22 07:28:32;;;;;;;78.85;44.03;;;;;;;16.50;100.00;101497.13;5036999;28;20454;-71
2023/05/22 07:30:57;;;;;;;85.32;46.00;;;;;;;16.61;100.00;101497.59;5046698;28;20064;-72
2023/05/22 07:33:22;;;;;;;79.47;45.88;;;;;;;16.74;100.00;101499.72;5048640;28;20777;-76
2023/05/22 07:35:48;;;;;;;81.05;45.75;;;;;;;16.94;100.00;101496.34;5038183;28;20030;-71
2023/05/22 07:38:13;;;;;;;77.43;46.20;;;;;;;17.03;100.00;101490.72;5038385;28;20449;-71
2023/05/22 07:40:38;;;;;;;81.07;45.97;;;;;;;16.99;100.00;101500.53;5036477;28;20116;-71
2023/05/22 07:43:03;;;;;;;82.80;46.88;;;;;;;16.95;100.00;101498.94;5042664;28;20031;-71
2023/05/22 07:45:29;;;;;;;84.43;48.58;;;;;;;16.98;100.00;101505.88;5038093;28;20087;-71
2023/05/22 07:47:55;;;;;;;81.47;45.50;;;;;;;17.08;100.00;101500.16;5038719;28;20026;-71
2023/05/22 07:50:21;;;;;;;86.20;47.60;;;;;;;17.22;100.00;101504.00;5038435;28;20369;-71
2023/05/22 07:52:46;;;;;;;80.97;45.63;;;;;;;17.35;100.00;101501.72;5031952;28;20499;-72
2023/05/22 07:55:11;;;;;;;88.55;47.25;;;;;;;17.36;100.00;101504.28;5031791;28;20424;-71
2023/05/22 07:57:37;;;;;;;93.45;49.22;;;;;;;17.38;100.00;101509.50;5034742;28;20045;-70
2023/05/22 08:00:08;;;;;;;91.55;47.97;;;;;;;17.42;100.00;101504.03;5035390;28;20025;-71
2023/05/22 08:02:33;;;;;;;88.03;49.05;;;;;;;17.47;100.00;101507.34;5033622;28;20037;-72
2023/05/22 08:04:59;;;;;;;90.82;50.00;;;;;;;17.63;100.00;101509.38;5036448;28;20026;-73
2023/05/22 08:07:24;;;;;;;91.45;49.50;;;;;;;17.74;100.00;101509.75;5038308;28;20025;-72
2023/05/22 08:09:50;;;;;;;87.28;50.05;;;;;;;17.81;100.00;101505.09;5034017;28;20091;-73
2023/05/22 08:12:15;;;;;;;89.28;48.97;;;;;;;17.84;100.00;101489.16;5033675;28;20025;-72
2023/05/22 08:14:40;;;;;;;83.72;49.70;;;;;;;18.01;99.38;101500.66;5034413;28;20038;-73
2023/05/22 08:17:05;;;;;;;90.72;49.80;;;;;;;18.10;99.13;101507.31;5033097;28;20071;-73
2023/05/22 08:19:31;;;;;;;85.97;46.72;;;;;;;18.21;99.89;101501.56;5034613;28;20496;-72
2023/05/22 08:21:56;;;;;;;88.30;50.13;;;;;;;18.33;99.80;101486.97;5034602;28;20366;-73
2023/05/22 08:24:27;;;;;;;94.78;49.88;;;;;;;18.37;97.79;101488.53;5038971;28;20116;-73
2023/05/22 08:26:53;;;;;;;88.43;49.97;;;;;;;18.52;97.49;101489.63;5034430;28;20104;-72
2023/05/22 08:29:19;;;;;;;84.38;50.67;;;;;;;18.73;98.65;101500.97;5035982;28;20022;-71
2023/05/22 08:31:44;;;;;;;86.85;50.72;;;;;;;18.87;98.34;101496.78;5031655;28;20041;-71
2023/05/22 08:34:09;;;;;;;87.43;49.42;;;;;;;19.08;94.27;101494.88;5034198;28;20468;-73
2023/05/22 08:36:35;;;;;;;80.15;48.10;;;;;;;19.09;94.99;101485.16;5033570;28;20083;-73
2023/05/22 08:39:00;;;;;;;86.60;50.17;;;;;;;19.34;95.75;101503.31;5034119;28;20473;-73
2023/05/22 08:41:27;;;;;;;81.85;49.22;;;;;;;19.44;92.85;101496.63;5034311;28;20465;-73
2023/05/22 08:43:52;;;;;;;82.00;49.05;;;;;;;19.54;93.02;101497.03;5033015;28;20075;-73
2023/05/22 08:46:18;;;;;;;87.97;51.03;;;;;;;19.50;91.13;101485.75;5034412;28;20120;-73
2023/05/22 08:48:44;;;;;;;81.45;48.40;;;;;;;19.59;89.88;101487.94;5033176;28;20034;-73
2023/05/22 08:51:13;;;;;;;81.70;50.00;;;;;;;19.69;89.92;101496.28;5033167;28;20060;-72
2023/05/22 08:53:40;;;;;;;79.85;49.95;;;;;;;19.58;87.78;101491.47;5040700;28;20029;-73
2023/05/22 08:56:07;;;;;;;87.13;50.08;;;;;;;19.54;87.48;101492.59;5039517;28;20083;-72
2023/05/22 08:58:35;;;;;;;91.70;51.90;;;;;;;19.53;90.02;101500.59;5025615;28;20032;-72
2023/05/22 09:01:01;;;;;;;86.25;49.42;;;;;;;19.69;89.45;101493.63;5037314;28;20573;-73
2023/05/22 09:03:31;;;;;;;77.47;48.22;;;;;;;19.82;89.94;101497.38;5032544;28;20020;-72
2023/05/22 09:05:58;;;;;;;84.43;49.53;;;;;;;19.92;85.71;101502.19;5031480;28;20039;-72
2023/05/22 09:08:24;;;;;;;76.00;48.10;;;;;;;19.91;85.91;101498.66;5033373;28;20036;-72
2023/05/22 09:10:49;;;;;;;82.53;47.35;;;;;;;19.91;87.51;101500.44;5032192;28;20112;-72
2023/05/22 09:13:26;;;;;;;74.70;46.00;;;;;;;19.85;87.49;101497.19;5041660;28;20465;-73
2023/05/22 09:15:52;;;;;;;76.55;46.08;;;;;;;20.06;87.89;101508.44;5034742;28;20358;-72
2023/05/22 09:18:18;;;;;;;71.53;46.88;;;;;;;20.25;84.90;101499.53;5033871;28;20026;-72
2023/05/22 09:20:43;;;;;;;76.55;48.03;;;;;;;20.39;84.28;101504.09;5032985;28;20079;-73
2023/05/22 09:23:16;;;;;;;71.38;45.05;;;;;;;20.54;84.68;101498.00;5033656;28;20021;-73
2023/05/22 09:25:44;;;;;;;69.22;44.55;;;;;;;20.58;81.21;101500.38;5036496;28;20498;-73
2023/05/22 09:28:10;;;;;;;67.38;42.40;;;;;;;20.66;83.84;101497.28;5033135;28;20043;-73
2023/05/22 09:30:36;;;;;;;68.07;42.90;;;;;;;20.77;81.96;101494.91;5031220;28;20042;-72
2023/05/22 09:33:02;;;;;;;68.72;46.53;;;;;;;20.80;81.82;101505.34;5036265;28;20034;-72
2023/05/22 09:35:30;;;;;;;64.47;43.10;;;;;;;21.05;79.62;101488.91;5029504;28;20067;-72
2023/05/22 09:37:57;;;;;;;66.20;44.00;;;;;;;21.23;83.54;101489.66;5028340;28;20036;-72
2023/05/22 09:40:23;;;;;;;61.15;42.30;;;;;;;21.51;79.96;101494.22;5032089;28;20028;-72
2023/05/22 09:42:48;;;;;;;60.72;41.22;;;;;;;21.49;77.05;101493.47;5030369;28;20037;-72
2023/05/22 09:45:13;;;;;;;59.88;40.53;;;;;;;21.34;78.79;101493.47;5022412;28;20046;-71
2023/05/22 09:47:39;;;;;;;59.58;40.72;;;;;;;21.35;76.15;101489.91;5030964;28;20080;-72
2023/05/22 09:50:06;;;;;;;59.78;39.97;;;;;;;21.13;80.71;101475.22;5032996;28;20056;-71
2023/05/22 09:52:35;;;;;;;57.30;39.17;;;;;;;21.16;81.16;101484.81;5031214;28;20034;-71
2023/05/22 09:55:12;;;;;;;59.53;39.70;;;;;;;21.25;81.48;101485.13;5032035;28;20040;-71
2023/05/22 09:57:43;;;;;;;56.55;38.92;;;;;;;21.23;77.43;101486.16;5032660;28;20112;-71
2023/05/22 10:00:13;;;;;;;51.05;37.28;;;;;;;21.16;81.90;101480.34;5027212;28;20018;-71
2023/05/22 10:02:43;;;;;;;60.17;39.38;;;;;;;21.02;80.25;101482.91;5030271;28;20026;-72
2023/05/22 10:05:10;;;;;;;49.83;37.00;;;;;;;20.95;80.87;101482.41;5044005;28;20018;-71
2023/05/22 10:07:45;;;;;;;53.25;37.47;;;;;;;20.90;84.07;101488.94;5032618;28;20025;-71
2023/05/22 10:10:11;;;;;;;53.10;37.70;;;;;;;20.93;79.89;101475.53;5026375;28;20041;-71
2023/05/22 10:12:42;;;;;;;52.60;37.13;;;;;;;21.01;80.14;101486.53;5024305;28;20029;-71
2023/05/22 10:15:09;;;;;;;55.65;37.60;;;;;;;20.98;80.97;101481.41;5030602;28;20032;-72
2023/05/22 10:17:36;;;;;;;53.63;35.85;;;;;;;21.23;83.70;101479.03;5030977;28;22028;-71
2023/05/22 10:20:06;;;;;;;55.42;35.92;;;;;;;21.59;83.02;101482.31;5040884;28;20026;-71
2023/05/22 10:22:35;;;;;;;51.88;34.08;;;;;;;21.85;80.47;101475.44;5040056;28;20080;-71
2023/05/22 10:25:01;;;;;;;51.30;36.53;;;;;;;21.97;78.31;101477.31;5032210;28;20269;-72
2023/05/22 10:27:26;;;;;;;52.28;36.53;;;;;;;22.17;75.28;101469.03;5030502;28;20080;-72
2023/05/22 10:29:57;;;;;;;52.03;35.47;;;;;;;22.24;72.77;101469.50;5042874;28;20021;-71
2023/05/22 10:32:44;;;;;;;54.20;37.10;;;;;;;22.32;73.78;101475.19;5033595;28;20053;-71
2023/05/22 10:35:33;;;;;;;48.40;34.17;;;;;;;22.49;77.54;101467.94;5032681;28;20025;-71
2023/05/22 10:38:53;;;;;;;50.95;34.00;;;;;;;22.70;79.41;101465.72;5034337;28;20039;-71
2023/05/22 10:41:25;;;;;;;44.83;33.33;;;;;;;22.72;76.12;101456.69;4972426;28;20034;-72
2023/05/22 10:43:51;;;;;;;43.45;32.05;;;;;;;23.11;76.28;101447.09;4973691;28;20034;-72
2023/05/22 10:46:17;;;;;;;49.28;32.15;;;;;;;23.40;74.13;101460.25;4988539;28;20393;-71
2023/05/22 10:48:46;;;;;;;47.30;33.50;;;;;;;23.30;74.42;101460.84;5018796;28;20492;-72
2023/05/22 10:51:13;;;;;;;52.05;34.28;;;;;;;23.29;68.58;101448.53;5015264;28;20458;-71
2023/05/22 10:53:41;;;;;;;45.38;33.72;;;;;;;23.26;68.53;101458.50;5014199;28;20022;-71
2023/05/22 10:56:11;;;;;;;46.53;32.40;;;;;;;23.29;74.33;101448.53;5005464;28;20157;-71
2023/05/22 10:58:37;;;;;;;40.95;32.45;;;;;;;23.73;68.81;101457.09;5009126;28;20108;-72
2023/05/22 11:01:16;;;;;;;45.08;33.08;;;;;;;24.21;65.93;101452.81;5019151;28;20018;-71
2023/05/22 11:03:59;;;;;;;44.88;30.92;;;;;;;24.29;69.40;101453.09;5011671;28;20425;-71
2023/05/22 11:06:45;;;;;;;44.10;33.28;;;;;;;23.90;67.82;101456.78;5011002;28;20045;-71